sensor_id;sensor_type;location;lat;lon;timestamp;P1;durP1;ratioP1;P2;durP2;ratioP2
7881;SDS011;3986;41.884;23.466;2022-07-23T00:01:02;20.70;;;14.63;;
7881;SDS011;3986;41.884;23.466;2022-07-23T00:03:29;19.73;;;13.65;;
7881;SDS011;3986;41.884;23.466;2022-07-23T00:05:57;16.92;;;13.13;;
7881;SDS011;3986;41.884;23.466;2022-07-23T00:08:24;15.00;;;12.32;;
7881;SDS011;3986;41.884;23.466;2022-07-23T00:10:51;15.70;;;13.45;;
7881;SDS011;3986;41.884;23.466;2022-07-23T00:13:17;14.43;;;13.25;;
7881;SDS011;3986;41.884;23.466;2022-07-23T00:15:44;14.43;;;13.05;;
7881;SDS011;3986;41.884;23.466;2022-07-23T00:18:11;15.02;;;12.63;;
7881;SDS011;3986;41.884;23.466;2022-07-23T00:20:38;15.93;;;13.27;;
7881;SDS011;3986;41.884;23.466;2022-07-23T00:23:06;17.85;;;12.90;;
7881;SDS011;3986;41.884;23.466;2022-07-23T00:25:33;17.00;;;12.48;;
7881;SDS011;3986;41.884;23.466;2022-07-23T00:28:00;16.55;;;12.15;;
7881;SDS011;3986;41.884;23.466;2022-07-23T00:30:27;19.33;;;13.02;;
7881;SDS011;3986;41.884;23.466;2022-07-23T00:32:56;17.58;;;13.30;;
7881;SDS011;3986;41.884;23.466;2022-07-23T00:35:24;15.10;;;13.23;;
7881;SDS011;3986;41.884;23.466;2022-07-23T00:37:52;16.10;;;12.73;;
7881;SDS011;3986;41.884;23.466;2022-07-23T00:40:21;17.02;;;15.25;;
7881;SDS011;3986;41.884;23.466;2022-07-23T00:42:48;15.65;;;13.63;;
7881;SDS011;3986;41.884;23.466;2022-07-23T00:45:15;16.13;;;14.23;;
7881;SDS011;3986;41.884;23.466;2022-07-23T00:47:42;13.73;;;12.40;;
7881;SDS011;3986;41.884;23.466;2022-07-23T00:50:09;20.70;;;13.20;;
7881;SDS011;3986;41.884;23.466;2022-07-23T00:52:37;18.63;;;13.27;;
7881;SDS011;3986;41.884;23.466;2022-07-23T00:55:05;17.00;;;13.80;;
7881;SDS011;3986;41.884;23.466;2022-07-23T00:57:34;18.60;;;12.93;;
7881;SDS011;3986;41.884;23.466;2022-07-23T01:00:02;20.58;;;13.82;;
7881;SDS011;3986;41.884;23.466;2022-07-23T01:02:29;20.98;;;14.07;;
7881;SDS011;3986;41.884;23.466;2022-07-23T01:04:56;18.75;;;12.35;;
7881;SDS011;3986;41.884;23.466;2022-07-23T01:07:23;14.20;;;12.98;;
7881;SDS011;3986;41.884;23.466;2022-07-23T01:09:51;17.23;;;15.50;;
7881;SDS011;3986;41.884;23.466;2022-07-23T01:12:18;27.73;;;25.02;;
7881;SDS011;3986;41.884;23.466;2022-07-23T01:14:46;29.95;;;27.48;;
7881;SDS011;3986;41.884;23.466;2022-07-23T01:17:20;28.55;;;26.15;;
7881;SDS011;3986;41.884;23.466;2022-07-23T01:19:47;24.23;;;21.92;;
7881;SDS011;3986;41.884;23.466;2022-07-23T01:22:14;27.20;;;22.00;;
7881;SDS011;3986;41.884;23.466;2022-07-23T01:24:45;19.63;;;17.83;;
7881;SDS011;3986;41.884;23.466;2022-07-23T01:27:12;16.38;;;13.90;;
7881;SDS011;3986;41.884;23.466;2022-07-23T01:29:39;18.17;;;14.00;;
7881;SDS011;3986;41.884;23.466;2022-07-23T01:32:06;18.33;;;14.40;;
7881;SDS011;3986;41.884;23.466;2022-07-23T01:34:33;22.70;;;13.77;;
7881;SDS011;3986;41.884;23.466;2022-07-23T01:37:00;14.10;;;12.75;;
7881;SDS011;3986;41.884;23.466;2022-07-23T01:39:27;18.40;;;14.68;;
7881;SDS011;3986;41.884;23.466;2022-07-23T01:41:55;14.93;;;13.48;;
7881;SDS011;3986;41.884;23.466;2022-07-23T01:44:22;15.30;;;14.00;;
7881;SDS011;3986;41.884;23.466;2022-07-23T01:46:49;16.02;;;14.73;;
7881;SDS011;3986;41.884;23.466;2022-07-23T01:49:16;17.15;;;15.57;;
7881;SDS011;3986;41.884;23.466;2022-07-23T01:51:43;15.48;;;14.07;;
7881;SDS011;3986;41.884;23.466;2022-07-23T01:54:23;16.67;;;14.65;;
7881;SDS011;3986;41.884;23.466;2022-07-23T01:56:50;18.73;;;16.98;;
7881;SDS011;3986;41.884;23.466;2022-07-23T01:59:18;20.58;;;18.67;;
7881;SDS011;3986;41.884;23.466;2022-07-23T02:01:45;21.15;;;19.45;;
7881;SDS011;3986;41.884;23.466;2022-07-23T02:04:12;22.23;;;18.98;;
7881;SDS011;3986;41.884;23.466;2022-07-23T02:06:39;28.52;;;19.17;;
7881;SDS011;3986;41.884;23.466;2022-07-23T02:09:06;23.42;;;18.13;;
7881;SDS011;3986;41.884;23.466;2022-07-23T02:11:33;22.83;;;18.92;;
7881;SDS011;3986;41.884;23.466;2022-07-23T02:14:00;27.50;;;18.90;;
7881;SDS011;3986;41.884;23.466;2022-07-23T02:16:28;20.67;;;18.38;;
7881;SDS011;3986;41.884;23.466;2022-07-23T02:18:55;20.17;;;18.58;;
7881;SDS011;3986;41.884;23.466;2022-07-23T02:21:22;21.10;;;18.85;;
7881;SDS011;3986;41.884;23.466;2022-07-23T02:23:49;20.45;;;18.63;;
7881;SDS011;3986;41.884;23.466;2022-07-23T02:26:16;20.73;;;18.83;;
7881;SDS011;3986;41.884;23.466;2022-07-23T02:28:43;21.08;;;17.60;;
7881;SDS011;3986;41.884;23.466;2022-07-23T02:31:09;23.38;;;18.73;;
7881;SDS011;3986;41.884;23.466;2022-07-23T02:33:38;27.17;;;19.48;;
7881;SDS011;3986;41.884;23.466;2022-07-23T02:36:05;25.13;;;19.08;;
7881;SDS011;3986;41.884;23.466;2022-07-23T02:38:32;21.02;;;19.20;;
7881;SDS011;3986;41.884;23.466;2022-07-23T02:40:59;25.05;;;21.40;;
7881;SDS011;3986;41.884;23.466;2022-07-23T02:43:25;23.50;;;21.27;;
7881;SDS011;3986;41.884;23.466;2022-07-23T02:45:52;21.58;;;19.67;;
7881;SDS011;3986;41.884;23.466;2022-07-23T02:48:19;20.67;;;17.50;;
7881;SDS011;3986;41.884;23.466;2022-07-23T02:50:47;18.88;;;17.27;;
7881;SDS011;3986;41.884;23.466;2022-07-23T02:53:14;24.33;;;17.42;;
7881;SDS011;3986;41.884;23.466;2022-07-23T02:55:41;20.30;;;18.25;;
7881;SDS011;3986;41.884;23.466;2022-07-23T02:58:07;21.20;;;15.90;;
7881;SDS011;3986;41.884;23.466;2022-07-23T03:00:34;28.17;;;18.27;;
7881;SDS011;3986;41.884;23.466;2022-07-23T03:03:01;26.30;;;17.65;;
7881;SDS011;3986;41.884;23.466;2022-07-23T03:05:28;19.65;;;17.65;;
7881;SDS011;3986;41.884;23.466;2022-07-23T03:07:56;19.95;;;17.75;;
7881;SDS011;3986;41.884;23.466;2022-07-23T03:10:23;18.20;;;16.42;;
7881;SDS011;3986;41.884;23.466;2022-07-23T03:12:50;18.00;;;16.15;;
7881;SDS011;3986;41.884;23.466;2022-07-23T03:15:17;18.25;;;15.27;;
7881;SDS011;3986;41.884;23.466;2022-07-23T03:17:44;21.83;;;15.68;;
7881;SDS011;3986;41.884;23.466;2022-07-23T03:20:11;23.30;;;16.15;;
7881;SDS011;3986;41.884;23.466;2022-07-23T03:22:38;20.77;;;16.23;;
7881;SDS011;3986;41.884;23.466;2022-07-23T03:25:07;22.47;;;16.43;;
7881;SDS011;3986;41.884;23.466;2022-07-23T03:27:35;22.00;;;16.60;;
7881;SDS011;3986;41.884;23.466;2022-07-23T03:30:01;24.38;;;17.92;;
7881;SDS011;3986;41.884;23.466;2022-07-23T03:32:29;18.60;;;16.83;;
7881;SDS011;3986;41.884;23.466;2022-07-23T03:34:56;20.70;;;18.57;;
7881;SDS011;3986;41.884;23.466;2022-07-23T03:37:23;19.77;;;17.98;;
7881;SDS011;3986;41.884;23.466;2022-07-23T03:39:50;20.13;;;17.77;;
7881;SDS011;3986;41.884;23.466;2022-07-23T03:42:18;26.63;;;18.45;;
7881;SDS011;3986;41.884;23.466;2022-07-23T03:44:45;27.23;;;18.88;;
7881;SDS011;3986;41.884;23.466;2022-07-23T03:47:12;28.25;;;18.55;;
7881;SDS011;3986;41.884;23.466;2022-07-23T03:49:39;24.37;;;17.83;;
7881;SDS011;3986;41.884;23.466;2022-07-23T03:52:05;28.67;;;19.67;;
7881;SDS011;3986;41.884;23.466;2022-07-23T03:54:32;19.25;;;16.48;;
7881;SDS011;3986;41.884;23.466;2022-07-23T03:56:59;18.03;;;16.53;;
7881;SDS011;3986;41.884;23.466;2022-07-23T03:59:27;18.67;;;16.95;;
7881;SDS011;3986;41.884;23.466;2022-07-23T04:01:54;19.63;;;17.77;;
7881;SDS011;3986;41.884;23.466;2022-07-23T04:04:21;20.65;;;18.95;;
7881;SDS011;3986;41.884;23.466;2022-07-23T04:06:47;27.17;;;17.73;;
7881;SDS011;3986;41.884;23.466;2022-07-23T04:09:15;19.57;;;16.97;;
7881;SDS011;3986;41.884;23.466;2022-07-23T04:11:41;31.33;;;19.37;;
7881;SDS011;3986;41.884;23.466;2022-07-23T04:14:09;36.35;;;27.73;;
7881;SDS011;3986;41.884;23.466;2022-07-23T04:16:37;28.95;;;26.05;;
7881;SDS011;3986;41.884;23.466;2022-07-23T04:19:04;27.75;;;25.30;;
7881;SDS011;3986;41.884;23.466;2022-07-23T04:21:30;26.38;;;23.75;;
7881;SDS011;3986;41.884;23.466;2022-07-23T04:23:57;26.95;;;24.30;;
7881;SDS011;3986;41.884;23.466;2022-07-23T04:26:24;26.17;;;23.70;;
7881;SDS011;3986;41.884;23.466;2022-07-23T04:28:51;24.97;;;22.03;;
7881;SDS011;3986;41.884;23.466;2022-07-23T04:31:18;28.07;;;22.73;;
7881;SDS011;3986;41.884;23.466;2022-07-23T04:33:46;27.92;;;24.98;;
7881;SDS011;3986;41.884;23.466;2022-07-23T04:36:12;25.55;;;23.08;;
7881;SDS011;3986;41.884;23.466;2022-07-23T04:38:39;28.48;;;23.05;;
7881;SDS011;3986;41.884;23.466;2022-07-23T04:41:06;27.08;;;21.38;;
7881;SDS011;3986;41.884;23.466;2022-07-23T04:43:33;23.08;;;20.75;;
7881;SDS011;3986;41.884;23.466;2022-07-23T04:46:00;27.05;;;24.33;;
7881;SDS011;3986;41.884;23.466;2022-07-23T04:48:26;26.58;;;23.77;;
7881;SDS011;3986;41.884;23.466;2022-07-23T04:50:55;25.85;;;23.45;;
7881;SDS011;3986;41.884;23.466;2022-07-23T04:53:21;35.90;;;25.05;;
7881;SDS011;3986;41.884;23.466;2022-07-23T04:55:48;35.38;;;27.08;;
7881;SDS011;3986;41.884;23.466;2022-07-23T04:58:15;35.05;;;26.75;;
7881;SDS011;3986;41.884;23.466;2022-07-23T05:00:42;52.78;;;30.70;;
7881;SDS011;3986;41.884;23.466;2022-07-23T05:03:09;42.88;;;30.25;;
7881;SDS011;3986;41.884;23.466;2022-07-23T05:05:36;44.72;;;37.65;;
7881;SDS011;3986;41.884;23.466;2022-07-23T05:08:04;48.05;;;39.15;;
7881;SDS011;3986;41.884;23.466;2022-07-23T05:10:31;38.40;;;32.80;;
7881;SDS011;3986;41.884;23.466;2022-07-23T05:12:58;41.53;;;37.28;;
7881;SDS011;3986;41.884;23.466;2022-07-23T05:15:24;35.72;;;32.60;;
7881;SDS011;3986;41.884;23.466;2022-07-23T05:17:51;51.75;;;46.92;;
7881;SDS011;3986;41.884;23.466;2022-07-23T05:20:18;59.08;;;38.67;;
7881;SDS011;3986;41.884;23.466;2022-07-23T05:22:45;39.67;;;31.33;;
7881;SDS011;3986;41.884;23.466;2022-07-23T05:25:13;33.42;;;30.02;;
7881;SDS011;3986;41.884;23.466;2022-07-23T05:27:40;37.08;;;31.85;;
7881;SDS011;3986;41.884;23.466;2022-07-23T05:30:07;34.35;;;31.33;;
7881;SDS011;3986;41.884;23.466;2022-07-23T05:32:34;33.50;;;30.33;;
7881;SDS011;3986;41.884;23.466;2022-07-23T05:35:02;44.10;;;40.03;;
7881;SDS011;3986;41.884;23.466;2022-07-23T05:37:30;39.42;;;35.30;;
7881;SDS011;3986;41.884;23.466;2022-07-23T05:39:59;32.70;;;29.40;;
7881;SDS011;3986;41.884;23.466;2022-07-23T05:42:28;33.22;;;30.23;;
7881;SDS011;3986;41.884;23.466;2022-07-23T05:44:55;36.60;;;28.17;;
7881;SDS011;3986;41.884;23.466;2022-07-23T05:47:22;41.90;;;32.00;;
7881;SDS011;3986;41.884;23.466;2022-07-23T05:49:48;46.75;;;36.20;;
7881;SDS011;3986;41.884;23.466;2022-07-23T05:52:15;41.60;;;31.42;;
7881;SDS011;3986;41.884;23.466;2022-07-23T05:54:42;33.15;;;29.65;;
7881;SDS011;3986;41.884;23.466;2022-07-23T05:57:09;40.78;;;36.97;;
7881;SDS011;3986;41.884;23.466;2022-07-23T05:59:37;34.60;;;31.00;;
7881;SDS011;3986;41.884;23.466;2022-07-23T06:02:04;40.15;;;36.05;;
7881;SDS011;3986;41.884;23.466;2022-07-23T06:04:30;44.60;;;39.90;;
7881;SDS011;3986;41.884;23.466;2022-07-23T06:06:58;50.35;;;38.83;;
7881;SDS011;3986;41.884;23.466;2022-07-23T06:09:25;44.03;;;39.33;;
7881;SDS011;3986;41.884;23.466;2022-07-23T06:11:51;49.58;;;44.45;;
7881;SDS011;3986;41.884;23.466;2022-07-23T06:14:18;52.15;;;39.15;;
7881;SDS011;3986;41.884;23.466;2022-07-23T06:16:46;44.60;;;39.20;;
7881;SDS011;3986;41.884;23.466;2022-07-23T06:19:13;50.33;;;41.00;;
7881;SDS011;3986;41.884;23.466;2022-07-23T06:21:40;51.05;;;38.40;;
7881;SDS011;3986;41.884;23.466;2022-07-23T06:24:07;45.83;;;38.78;;
7881;SDS011;3986;41.884;23.466;2022-07-23T06:26:34;36.67;;;33.03;;
7881;SDS011;3986;41.884;23.466;2022-07-23T06:29:00;35.40;;;32.20;;
7881;SDS011;3986;41.884;23.466;2022-07-23T06:31:27;45.00;;;33.10;;
7881;SDS011;3986;41.884;23.466;2022-07-23T06:33:56;43.10;;;31.58;;
7881;SDS011;3986;41.884;23.466;2022-07-23T06:36:22;41.25;;;29.85;;
7881;SDS011;3986;41.884;23.466;2022-07-23T06:38:49;35.03;;;31.25;;
7881;SDS011;3986;41.884;23.466;2022-07-23T06:41:16;39.20;;;29.63;;
7881;SDS011;3986;41.884;23.466;2022-07-23T06:43:43;31.58;;;28.98;;
7881;SDS011;3986;41.884;23.466;2022-07-23T06:46:09;56.75;;;31.63;;
7881;SDS011;3986;41.884;23.466;2022-07-23T06:48:36;32.13;;;28.92;;
7881;SDS011;3986;41.884;23.466;2022-07-23T06:51:05;29.73;;;27.25;;
7881;SDS011;3986;41.884;23.466;2022-07-23T06:53:31;80.72;;;29.55;;
7881;SDS011;3986;41.884;23.466;2022-07-23T06:55:58;29.08;;;23.60;;
7881;SDS011;3986;41.884;23.466;2022-07-23T06:58:25;38.30;;;24.02;;
7881;SDS011;3986;41.884;23.466;2022-07-23T07:00:52;34.20;;;23.60;;
7881;SDS011;3986;41.884;23.466;2022-07-23T07:03:19;42.45;;;24.38;;
7881;SDS011;3986;41.884;23.466;2022-07-23T07:05:45;37.45;;;24.40;;
7881;SDS011;3986;41.884;23.466;2022-07-23T07:08:14;44.20;;;24.33;;
7881;SDS011;3986;41.884;23.466;2022-07-23T07:10:40;30.98;;;24.67;;
7881;SDS011;3986;41.884;23.466;2022-07-23T07:13:07;35.17;;;21.63;;
7881;SDS011;3986;41.884;23.466;2022-07-23T07:15:34;64.40;;;27.00;;
7881;SDS011;3986;41.884;23.466;2022-07-23T07:18:01;36.75;;;21.80;;
7881;SDS011;3986;41.884;23.466;2022-07-23T07:20:28;49.35;;;24.83;;
7881;SDS011;3986;41.884;23.466;2022-07-23T07:22:55;30.40;;;21.45;;
7881;SDS011;3986;41.884;23.466;2022-07-23T07:25:23;35.80;;;21.02;;
7881;SDS011;3986;41.884;23.466;2022-07-23T07:27:50;32.90;;;25.38;;
7881;SDS011;3986;41.884;23.466;2022-07-23T07:30:17;28.23;;;21.50;;
7881;SDS011;3986;41.884;23.466;2022-07-23T07:32:44;23.23;;;20.83;;
7881;SDS011;3986;41.884;23.466;2022-07-23T07:35:11;44.58;;;22.92;;
7881;SDS011;3986;41.884;23.466;2022-07-23T07:37:38;49.05;;;22.95;;
7881;SDS011;3986;41.884;23.466;2022-07-23T07:40:05;42.42;;;20.60;;
7881;SDS011;3986;41.884;23.466;2022-07-23T07:42:34;37.00;;;20.83;;
7881;SDS011;3986;41.884;23.466;2022-07-23T07:45:01;50.60;;;22.80;;
7881;SDS011;3986;41.884;23.466;2022-07-23T07:47:28;49.85;;;23.10;;
7881;SDS011;3986;41.884;23.466;2022-07-23T07:49:54;46.83;;;24.58;;
7881;SDS011;3986;41.884;23.466;2022-07-23T07:52:21;34.33;;;22.15;;
7881;SDS011;3986;41.884;23.466;2022-07-23T07:54:48;49.97;;;22.98;;
7881;SDS011;3986;41.884;23.466;2022-07-23T07:57:24;36.78;;;21.23;;
7881;SDS011;3986;41.884;23.466;2022-07-23T08:00:01;35.38;;;20.75;;
7881;SDS011;3986;41.884;23.466;2022-07-23T08:02:50;41.10;;;20.83;;
7881;SDS011;3986;41.884;23.466;2022-07-23T08:05:19;32.70;;;21.05;;
7881;SDS011;3986;41.884;23.466;2022-07-23T08:07:47;23.70;;;18.80;;
7881;SDS011;3986;41.884;23.466;2022-07-23T08:10:14;47.60;;;21.98;;
7881;SDS011;3986;41.884;23.466;2022-07-23T08:12:42;46.55;;;20.42;;
7881;SDS011;3986;41.884;23.466;2022-07-23T08:15:12;35.20;;;18.27;;
7881;SDS011;3986;41.884;23.466;2022-07-23T08:17:40;35.50;;;17.17;;
7881;SDS011;3986;41.884;23.466;2022-07-23T08:20:08;33.20;;;19.80;;
7881;SDS011;3986;41.884;23.466;2022-07-23T08:22:43;50.70;;;28.30;;
7881;SDS011;3986;41.884;23.466;2022-07-23T08:25:11;37.20;;;17.95;;
7881;SDS011;3986;41.884;23.466;2022-07-23T08:27:38;35.28;;;19.02;;
7881;SDS011;3986;41.884;23.466;2022-07-23T08:30:06;38.35;;;22.60;;
7881;SDS011;3986;41.884;23.466;2022-07-23T08:32:45;30.08;;;20.65;;
7881;SDS011;3986;41.884;23.466;2022-07-23T08:35:14;46.97;;;27.90;;
7881;SDS011;3986;41.884;23.466;2022-07-23T08:37:41;45.83;;;31.88;;
7881;SDS011;3986;41.884;23.466;2022-07-23T08:40:08;45.42;;;25.30;;
7881;SDS011;3986;41.884;23.466;2022-07-23T08:42:36;41.72;;;23.05;;
7881;SDS011;3986;41.884;23.466;2022-07-23T08:45:03;43.67;;;21.08;;
7881;SDS011;3986;41.884;23.466;2022-07-23T08:47:33;30.65;;;19.35;;
7881;SDS011;3986;41.884;23.466;2022-07-23T08:50:02;39.55;;;20.85;;
7881;SDS011;3986;41.884;23.466;2022-07-23T08:52:30;43.17;;;22.85;;
7881;SDS011;3986;41.884;23.466;2022-07-23T08:54:57;32.13;;;18.60;;
7881;SDS011;3986;41.884;23.466;2022-07-23T08:57:24;48.45;;;19.40;;
7881;SDS011;3986;41.884;23.466;2022-07-23T08:59:51;43.78;;;18.95;;
7881;SDS011;3986;41.884;23.466;2022-07-23T09:02:17;34.08;;;17.80;;
7881;SDS011;3986;41.884;23.466;2022-07-23T09:04:44;41.80;;;18.73;;
7881;SDS011;3986;41.884;23.466;2022-07-23T09:07:13;25.58;;;16.98;;
7881;SDS011;3986;41.884;23.466;2022-07-23T09:09:39;31.77;;;16.52;;
7881;SDS011;3986;41.884;23.466;2022-07-23T09:12:08;51.10;;;17.80;;
7881;SDS011;3986;41.884;23.466;2022-07-23T09:14:36;39.30;;;16.95;;
7881;SDS011;3986;41.884;23.466;2022-07-23T09:17:08;27.17;;;14.13;;
7881;SDS011;3986;41.884;23.466;2022-07-23T09:19:36;46.20;;;14.50;;
7881;SDS011;3986;41.884;23.466;2022-07-23T09:22:17;53.40;;;14.65;;
7881;SDS011;3986;41.884;23.466;2022-07-23T09:27:44;39.13;;;11.02;;
7881;SDS011;3986;41.884;23.466;2022-07-23T09:30:13;22.17;;;9.25;;
7881;SDS011;3986;41.884;23.466;2022-07-23T09:32:40;29.85;;;8.30;;
7881;SDS011;3986;41.884;23.466;2022-07-23T09:35:07;57.60;;;10.13;;
7881;SDS011;3986;41.884;23.466;2022-07-23T09:37:35;40.85;;;10.48;;
7881;SDS011;3986;41.884;23.466;2022-07-23T09:40:03;30.35;;;8.45;;
7881;SDS011;3986;41.884;23.466;2022-07-23T09:42:31;35.13;;;8.88;;
7881;SDS011;3986;41.884;23.466;2022-07-23T09:44:59;41.72;;;9.50;;
7881;SDS011;3986;41.884;23.466;2022-07-23T09:47:26;55.28;;;11.13;;
7881;SDS011;3986;41.884;23.466;2022-07-23T09:49:58;64.22;;;11.65;;
7881;SDS011;3986;41.884;23.466;2022-07-23T09:52:26;51.38;;;12.68;;
7881;SDS011;3986;41.884;23.466;2022-07-23T09:54:58;50.42;;;12.15;;
7881;SDS011;3986;41.884;23.466;2022-07-23T09:57:26;36.08;;;11.43;;
7881;SDS011;3986;41.884;23.466;2022-07-23T09:59:55;34.70;;;9.27;;
7881;SDS011;3986;41.884;23.466;2022-07-23T10:02:23;21.50;;;7.80;;
7881;SDS011;3986;41.884;23.466;2022-07-23T10:04:51;26.30;;;7.75;;
7881;SDS011;3986;41.884;23.466;2022-07-23T10:07:21;25.88;;;9.48;;
7881;SDS011;3986;41.884;23.466;2022-07-23T10:09:48;23.30;;;8.50;;
7881;SDS011;3986;41.884;23.466;2022-07-23T10:12:19;25.33;;;9.07;;
7881;SDS011;3986;41.884;23.466;2022-07-23T10:15:03;31.17;;;8.68;;
7881;SDS011;3986;41.884;23.466;2022-07-23T10:17:31;30.25;;;8.38;;
7881;SDS011;3986;41.884;23.466;2022-07-23T10:19:58;22.75;;;8.73;;
7881;SDS011;3986;41.884;23.466;2022-07-23T10:22:25;18.13;;;8.10;;
7881;SDS011;3986;41.884;23.466;2022-07-23T10:25:04;33.53;;;9.60;;
7881;SDS011;3986;41.884;23.466;2022-07-23T10:27:40;16.92;;;8.38;;
7881;SDS011;3986;41.884;23.466;2022-07-23T10:30:15;21.52;;;9.57;;
7881;SDS011;3986;41.884;23.466;2022-07-23T10:32:49;28.58;;;9.90;;
7881;SDS011;3986;41.884;23.466;2022-07-23T10:35:29;35.78;;;9.27;;
7881;SDS011;3986;41.884;23.466;2022-07-23T10:38:06;32.28;;;8.80;;
7881;SDS011;3986;41.884;23.466;2022-07-23T10:40:49;28.77;;;8.75;;
7881;SDS011;3986;41.884;23.466;2022-07-23T10:43:22;31.90;;;8.88;;
7881;SDS011;3986;41.884;23.466;2022-07-23T10:45:49;26.27;;;8.23;;
7881;SDS011;3986;41.884;23.466;2022-07-23T10:48:16;26.42;;;8.63;;
7881;SDS011;3986;41.884;23.466;2022-07-23T10:59:32;20.88;;;8.07;;
7881;SDS011;3986;41.884;23.466;2022-07-23T11:02:38;35.17;;;9.85;;
7881;SDS011;3986;41.884;23.466;2022-07-23T11:05:06;26.85;;;8.68;;
7881;SDS011;3986;41.884;23.466;2022-07-23T11:07:35;26.50;;;8.73;;
7881;SDS011;3986;41.884;23.466;2022-07-23T11:10:02;27.98;;;9.40;;
7881;SDS011;3986;41.884;23.466;2022-07-23T11:12:33;25.08;;;8.60;;
7881;SDS011;3986;41.884;23.466;2022-07-23T11:15:08;34.03;;;8.82;;
7881;SDS011;3986;41.884;23.466;2022-07-23T11:17:36;30.83;;;9.18;;
7881;SDS011;3986;41.884;23.466;2022-07-23T11:20:18;29.23;;;9.40;;
7881;SDS011;3986;41.884;23.466;2022-07-23T11:22:47;25.83;;;9.60;;
7881;SDS011;3986;41.884;23.466;2022-07-23T11:25:30;37.78;;;9.23;;
7881;SDS011;3986;41.884;23.466;2022-07-23T11:28:14;27.50;;;8.68;;
7881;SDS011;3986;41.884;23.466;2022-07-23T11:30:44;21.33;;;9.57;;
7881;SDS011;3986;41.884;23.466;2022-07-23T11:33:19;30.15;;;9.15;;
7881;SDS011;3986;41.884;23.466;2022-07-23T11:35:49;22.67;;;8.48;;
7881;SDS011;3986;41.884;23.466;2022-07-23T11:38:25;16.05;;;8.35;;
7881;SDS011;3986;41.884;23.466;2022-07-23T11:40:53;29.42;;;9.25;;
7881;SDS011;3986;41.884;23.466;2022-07-23T11:43:22;40.45;;;10.30;;
7881;SDS011;3986;41.884;23.466;2022-07-23T11:45:52;25.27;;;9.45;;
7881;SDS011;3986;41.884;23.466;2022-07-23T11:48:20;34.75;;;10.00;;
7881;SDS011;3986;41.884;23.466;2022-07-23T11:50:48;14.63;;;7.97;;
7881;SDS011;3986;41.884;23.466;2022-07-23T11:53:21;31.52;;;9.38;;
7881;SDS011;3986;41.884;23.466;2022-07-23T11:55:48;22.42;;;8.98;;
7881;SDS011;3986;41.884;23.466;2022-07-23T11:58:16;18.05;;;9.13;;
7881;SDS011;3986;41.884;23.466;2022-07-23T12:00:43;25.38;;;8.77;;
7881;SDS011;3986;41.884;23.466;2022-07-23T12:03:12;32.92;;;10.18;;
7881;SDS011;3986;41.884;23.466;2022-07-23T12:05:39;36.22;;;11.02;;
7881;SDS011;3986;41.884;23.466;2022-07-23T12:08:06;34.20;;;10.05;;
7881;SDS011;3986;41.884;23.466;2022-07-23T12:10:35;33.13;;;10.75;;
7881;SDS011;3986;41.884;23.466;2022-07-23T12:13:04;20.17;;;9.32;;
7881;SDS011;3986;41.884;23.466;2022-07-23T12:15:33;25.08;;;9.95;;
7881;SDS011;3986;41.884;23.466;2022-07-23T12:18:04;24.17;;;9.98;;
7881;SDS011;3986;41.884;23.466;2022-07-23T12:20:35;26.70;;;9.90;;
7881;SDS011;3986;41.884;23.466;2022-07-23T12:23:04;37.60;;;10.73;;
7881;SDS011;3986;41.884;23.466;2022-07-23T12:25:33;17.77;;;9.30;;
7881;SDS011;3986;41.884;23.466;2022-07-23T12:28:02;18.55;;;8.93;;
7881;SDS011;3986;41.884;23.466;2022-07-23T12:30:32;19.55;;;9.43;;
7881;SDS011;3986;41.884;23.466;2022-07-23T12:33:00;17.08;;;9.27;;
7881;SDS011;3986;41.884;23.466;2022-07-23T12:35:32;20.80;;;8.98;;
7881;SDS011;3986;41.884;23.466;2022-07-23T12:38:03;19.95;;;9.40;;
7881;SDS011;3986;41.884;23.466;2022-07-23T12:40:32;28.90;;;9.80;;
7881;SDS011;3986;41.884;23.466;2022-07-23T12:43:02;31.70;;;10.10;;
7881;SDS011;3986;41.884;23.466;2022-07-23T12:45:41;16.40;;;8.95;;
7881;SDS011;3986;41.884;23.466;2022-07-23T12:48:15;32.88;;;10.75;;
7881;SDS011;3986;41.884;23.466;2022-07-23T12:50:49;34.78;;;10.43;;
7881;SDS011;3986;41.884;23.466;2022-07-23T12:53:21;40.25;;;10.98;;
7881;SDS011;3986;41.884;23.466;2022-07-23T12:55:50;33.65;;;10.32;;
7881;SDS011;3986;41.884;23.466;2022-07-23T12:58:23;21.88;;;9.82;;
7881;SDS011;3986;41.884;23.466;2022-07-23T13:00:55;21.27;;;11.30;;
7881;SDS011;3986;41.884;23.466;2022-07-23T13:03:23;22.85;;;9.15;;
7881;SDS011;3986;41.884;23.466;2022-07-23T13:05:53;25.23;;;10.35;;
7881;SDS011;3986;41.884;23.466;2022-07-23T13:08:20;27.67;;;10.18;;
7881;SDS011;3986;41.884;23.466;2022-07-23T13:10:48;19.98;;;9.57;;
7881;SDS011;3986;41.884;23.466;2022-07-23T13:13:16;19.00;;;9.07;;
7881;SDS011;3986;41.884;23.466;2022-07-23T13:15:43;36.70;;;10.63;;
7881;SDS011;3986;41.884;23.466;2022-07-23T13:18:10;52.75;;;12.48;;
7881;SDS011;3986;41.884;23.466;2022-07-23T13:20:37;38.55;;;12.07;;
7881;SDS011;3986;41.884;23.466;2022-07-23T13:23:06;17.05;;;9.15;;
7881;SDS011;3986;41.884;23.466;2022-07-23T13:25:33;35.50;;;10.45;;
7881;SDS011;3986;41.884;23.466;2022-07-23T13:28:00;36.97;;;10.57;;
7881;SDS011;3986;41.884;23.466;2022-07-23T13:30:27;26.33;;;9.95;;
7881;SDS011;3986;41.884;23.466;2022-07-23T13:32:54;29.13;;;9.52;;
7881;SDS011;3986;41.884;23.466;2022-07-23T13:35:21;25.25;;;12.02;;
7881;SDS011;3986;41.884;23.466;2022-07-23T13:37:48;26.25;;;9.32;;
7881;SDS011;3986;41.884;23.466;2022-07-23T13:40:17;27.92;;;9.82;;
7881;SDS011;3986;41.884;23.466;2022-07-23T13:42:44;31.67;;;9.68;;
7881;SDS011;3986;41.884;23.466;2022-07-23T13:45:10;33.78;;;10.63;;
7881;SDS011;3986;41.884;23.466;2022-07-23T13:47:37;20.95;;;9.75;;
7881;SDS011;3986;41.884;23.466;2022-07-23T13:50:05;28.35;;;10.10;;
7881;SDS011;3986;41.884;23.466;2022-07-23T13:52:32;22.60;;;9.70;;
7881;SDS011;3986;41.884;23.466;2022-07-23T13:55:00;23.50;;;9.93;;
7881;SDS011;3986;41.884;23.466;2022-07-23T13:57:30;12.82;;;8.55;;
7881;SDS011;3986;41.884;23.466;2022-07-23T13:59:57;23.60;;;10.00;;
7881;SDS011;3986;41.884;23.466;2022-07-23T14:02:24;29.73;;;10.20;;
7881;SDS011;3986;41.884;23.466;2022-07-23T14:04:52;20.40;;;9.52;;
7881;SDS011;3986;41.884;23.466;2022-07-23T14:07:19;32.72;;;10.30;;
7881;SDS011;3986;41.884;23.466;2022-07-23T14:09:46;22.65;;;9.48;;
7881;SDS011;3986;41.884;23.466;2022-07-23T14:12:13;35.30;;;10.73;;
7881;SDS011;3986;41.884;23.466;2022-07-23T14:14:41;26.60;;;9.25;;
7881;SDS011;3986;41.884;23.466;2022-07-23T14:17:08;23.58;;;9.38;;
7881;SDS011;3986;41.884;23.466;2022-07-23T14:19:35;29.25;;;9.70;;
7881;SDS011;3986;41.884;23.466;2022-07-23T14:22:02;22.45;;;8.98;;
7881;SDS011;3986;41.884;23.466;2022-07-23T14:24:29;15.27;;;8.80;;
7881;SDS011;3986;41.884;23.466;2022-07-23T14:26:55;32.38;;;10.10;;
7881;SDS011;3986;41.884;23.466;2022-07-23T14:29:22;37.42;;;10.98;;
7881;SDS011;3986;41.884;23.466;2022-07-23T14:31:50;26.52;;;10.25;;
7881;SDS011;3986;41.884;23.466;2022-07-23T14:34:17;33.58;;;10.73;;
7881;SDS011;3986;41.884;23.466;2022-07-23T14:36:44;33.90;;;10.77;;
7881;SDS011;3986;41.884;23.466;2022-07-23T14:39:11;19.40;;;9.50;;
7881;SDS011;3986;41.884;23.466;2022-07-23T14:41:38;22.33;;;10.52;;
7881;SDS011;3986;41.884;23.466;2022-07-23T14:44:05;20.08;;;9.02;;
7881;SDS011;3986;41.884;23.466;2022-07-23T14:46:32;25.85;;;9.50;;
7881;SDS011;3986;41.884;23.466;2022-07-23T14:49:01;25.58;;;11.02;;
7881;SDS011;3986;41.884;23.466;2022-07-23T14:51:28;30.10;;;12.32;;
7881;SDS011;3986;41.884;23.466;2022-07-23T14:53:54;27.60;;;10.40;;
7881;SDS011;3986;41.884;23.466;2022-07-23T14:56:21;19.73;;;10.82;;